sensor_id;sensor_type;location;lat;lon;timestamp;pressure;altitude;pressure_sealevel;temperature
79488;BMP180;68949;53.176;18.088;2024-03-17T00:01:12;100210.60;;;
79488;BMP180;68949;53.176;18.088;2024-03-17T00:03:59;100204.60;;;
79488;BMP180;68949;53.176;18.088;2024-03-17T00:06:26;100195.20;;;
79488;BMP180;68949;53.176;18.088;2024-03-17T00:08:52;100193.60;;;
79488;BMP180;68949;53.176;18.088;2024-03-17T00:11:19;100181.20;;;
79488;BMP180;68949;53.176;18.088;2024-03-17T00:13:45;100189.00;;;
79488;BMP180;68949;53.176;18.088;2024-03-17T00:16:12;100183.20;;;
79488;BMP180;68949;53.176;18.088;2024-03-17T00:18:39;100170.60;;;
79488;BMP180;68949;53.176;18.088;2024-03-17T00:21:07;100176.60;;;
79488;BMP180;68949;53.176;18.088;2024-03-17T00:23:35;100164.00;;;
79488;BMP180;68949;53.176;18.088;2024-03-17T00:26:03;100162.80;;;
79488;BMP180;68949;53.176;18.088;2024-03-17T00:28:30;100158.40;;;
79488;BMP180;68949;53.176;18.088;2024-03-17T00:30:57;100163.80;;;
79488;BMP180;68949;53.176;18.088;2024-03-17T00:33:23;100162.00;;;
79488;BMP180;68949;53.176;18.088;2024-03-17T00:35:50;100168.80;;;
79488;BMP180;68949;53.176;18.088;2024-03-17T00:38:18;100173.20;;;
79488;BMP180;68949;53.176;18.088;2024-03-17T00:40:45;100178.00;;;
79488;BMP180;68949;53.176;18.088;2024-03-17T00:43:13;100178.20;;;
79488;BMP180;68949;53.176;18.088;2024-03-17T00:45:40;100175.20;;;
79488;BMP180;68949;53.176;18.088;2024-03-17T00:48:08;100171.40;;;
79488;BMP180;68949;53.176;18.088;2024-03-17T00:50:39;100181.80;;;
79488;BMP180;68949;53.176;18.088;2024-03-17T00:53:13;100173.60;;;
79488;BMP180;68949;53.176;18.088;2024-03-17T00:55:55;100180.00;;;
79488;BMP180;68949;53.176;18.088;2024-03-17T00:58:26;100183.80;;;
79488;BMP180;68949;53.176;18.088;2024-03-17T01:00:53;100186.20;;;
79488;BMP180;68949;53.176;18.088;2024-03-17T01:03:20;100183.40;;;
79488;BMP180;68949;53.176;18.088;2024-03-17T01:05:48;100179.00;;;
79488;BMP180;68949;53.176;18.088;2024-03-17T01:08:45;100181.00;;;
79488;BMP180;68949;53.176;18.088;2024-03-17T01:11:24;100179.60;;;
79488;BMP180;68949;53.176;18.088;2024-03-17T01:13:52;100179.80;;;
79488;BMP180;68949;53.176;18.088;2024-03-17T01:16:18;100181.00;;;
79488;BMP180;68949;53.176;18.088;2024-03-17T01:18:45;100179.00;;;
79488;BMP180;68949;53.176;18.088;2024-03-17T01:21:12;100176.60;;;
79488;BMP180;68949;53.176;18.088;2024-03-17T01:23:39;100177.80;;;
79488;BMP180;68949;53.176;18.088;2024-03-17T01:26:09;100176.40;;;
79488;BMP180;68949;53.176;18.088;2024-03-17T01:28:44;100181.40;;;
79488;BMP180;68949;53.176;18.088;2024-03-17T01:31:13;100176.40;;;
79488;BMP180;68949;53.176;18.088;2024-03-17T01:33:44;100175.60;;;
79488;BMP180;68949;53.176;18.088;2024-03-17T01:36:11;100180.60;;;
79488;BMP180;68949;53.176;18.088;2024-03-17T01:38:39;100179.20;;;
79488;BMP180;68949;53.176;18.088;2024-03-17T01:41:06;100175.60;;;
79488;BMP180;68949;53.176;18.088;2024-03-17T01:43:35;100169.80;;;
79488;BMP180;68949;53.176;18.088;2024-03-17T01:46:02;100171.80;;;
79488;BMP180;68949;53.176;18.088;2024-03-17T01:48:30;100175.80;;;
79488;BMP180;68949;53.176;18.088;2024-03-17T01:51:01;100178.20;;;
79488;BMP180;68949;53.176;18.088;2024-03-17T01:53:31;100185.80;;;
79488;BMP180;68949;53.176;18.088;2024-03-17T01:56:04;100195.80;;;
79488;BMP180;68949;53.176;18.088;2024-03-17T01:58:32;100199.60;;;
79488;BMP180;68949;53.176;18.088;2024-03-17T02:00:59;100202.80;;;
79488;BMP180;68949;53.176;18.088;2024-03-17T02:03:26;100199.40;;;
79488;BMP180;68949;53.176;18.088;2024-03-17T02:05:54;100206.20;;;
79488;BMP180;68949;53.176;18.088;2024-03-17T02:08:21;100205.20;;;
79488;BMP180;68949;53.176;18.088;2024-03-17T02:10:55;100208.60;;;
79488;BMP180;68949;53.176;18.088;2024-03-17T02:13:22;100204.60;;;
79488;BMP180;68949;53.176;18.088;2024-03-17T02:15:49;100199.40;;;
79488;BMP180;68949;53.176;18.088;2024-03-17T02:18:15;100199.40;;;
79488;BMP180;68949;53.176;18.088;2024-03-17T02:20:42;100197.40;;;
79488;BMP180;68949;53.176;18.088;2024-03-17T02:23:27;100199.40;;;
79488;BMP180;68949;53.176;18.088;2024-03-17T02:25:55;100193.20;;;
79488;BMP180;68949;53.176;18.088;2024-03-17T02:28:24;100195.20;;;
79488;BMP180;68949;53.176;18.088;2024-03-17T02:30:51;100181.40;;;
79488;BMP180;68949;53.176;18.088;2024-03-17T02:33:20;100176.40;;;
79488;BMP180;68949;53.176;18.088;2024-03-17T02:35:50;100173.00;;;
79488;BMP180;68949;53.176;18.088;2024-03-17T02:38:17;100170.80;;;
79488;BMP180;68949;53.176;18.088;2024-03-17T02:41:07;100168.20;;;
79488;BMP180;68949;53.176;18.088;2024-03-17T02:43:34;100161.40;;;
79488;BMP180;68949;53.176;18.088;2024-03-17T02:46:02;100160.80;;;
79488;BMP180;68949;53.176;18.088;2024-03-17T02:48:35;100155.20;;;
79488;BMP180;68949;53.176;18.088;2024-03-17T02:51:07;100156.80;;;
79488;BMP180;68949;53.176;18.088;2024-03-17T02:53:36;100158.40;;;
79488;BMP180;68949;53.176;18.088;2024-03-17T02:56:03;100145.40;;;
79488;BMP180;68949;53.176;18.088;2024-03-17T02:58:29;100140.20;;;
79488;BMP180;68949;53.176;18.088;2024-03-17T03:00:56;100135.00;;;
79488;BMP180;68949;53.176;18.088;2024-03-17T03:03:23;100131.60;;;
79488;BMP180;68949;53.176;18.088;2024-03-17T03:05:51;100135.40;;;
79488;BMP180;68949;53.176;18.088;2024-03-17T03:08:21;100139.00;;;
79488;BMP180;68949;53.176;18.088;2024-03-17T03:10:49;100154.20;;;
79488;BMP180;68949;53.176;18.088;2024-03-17T03:13:18;100154.80;;;
79488;BMP180;68949;53.176;18.088;2024-03-17T03:15:47;100146.80;;;
79488;BMP180;68949;53.176;18.088;2024-03-17T03:18:16;100146.60;;;
79488;BMP180;68949;53.176;18.088;2024-03-17T03:20:51;100148.00;;;
79488;BMP180;68949;53.176;18.088;2024-03-17T03:23:19;100146.00;;;
79488;BMP180;68949;53.176;18.088;2024-03-17T03:25:46;100150.40;;;
79488;BMP180;68949;53.176;18.088;2024-03-17T03:28:17;100143.80;;;
79488;BMP180;68949;53.176;18.088;2024-03-17T03:30:44;100144.40;;;
79488;BMP180;68949;53.176;18.088;2024-03-17T03:33:11;100147.40;;;
79488;BMP180;68949;53.176;18.088;2024-03-17T03:35:38;100155.20;;;
79488;BMP180;68949;53.176;18.088;2024-03-17T03:38:06;100150.20;;;
79488;BMP180;68949;53.176;18.088;2024-03-17T03:40:37;100157.00;;;
79488;BMP180;68949;53.176;18.088;2024-03-17T03:43:11;100155.80;;;
79488;BMP180;68949;53.176;18.088;2024-03-17T03:45:37;100152.00;;;
79488;BMP180;68949;53.176;18.088;2024-03-17T03:48:18;100155.40;;;
79488;BMP180;68949;53.176;18.088;2024-03-17T03:50:44;100147.80;;;
79488;BMP180;68949;53.176;18.088;2024-03-17T03:53:11;100149.60;;;
79488;BMP180;68949;53.176;18.088;2024-03-17T03:55:38;100153.80;;;
79488;BMP180;68949;53.176;18.088;2024-03-17T03:58:04;100153.00;;;
79488;BMP180;68949;53.176;18.088;2024-03-17T04:00:31;100165.80;;;
79488;BMP180;68949;53.176;18.088;2024-03-17T04:02:59;100188.60;;;
79488;BMP180;68949;53.176;18.088;2024-03-17T04:05:27;100207.00;;;
79488;BMP180;68949;53.176;18.088;2024-03-17T04:08:42;100237.60;;;
79488;BMP180;68949;53.176;18.088;2024-03-17T04:11:11;100251.40;;;
79488;BMP180;68949;53.176;18.088;2024-03-17T04:13:38;100271.00;;;
79488;BMP180;68949;53.176;18.088;2024-03-17T04:16:06;100274.00;;;
79488;BMP180;68949;53.176;18.088;2024-03-17T04:18:34;100278.40;;;
79488;BMP180;68949;53.176;18.088;2024-03-17T04:21:06;100279.00;;;
79488;BMP180;68949;53.176;18.088;2024-03-17T04:23:33;100285.20;;;
79488;BMP180;68949;53.176;18.088;2024-03-17T04:26:01;100292.20;;;
79488;BMP180;68949;53.176;18.088;2024-03-17T04:28:31;100294.20;;;
79488;BMP180;68949;53.176;18.088;2024-03-17T04:31:08;100294.20;;;
79488;BMP180;68949;53.176;18.088;2024-03-17T04:33:35;100299.60;;;
79488;BMP180;68949;53.176;18.088;2024-03-17T04:36:06;100293.20;;;
79488;BMP180;68949;53.176;18.088;2024-03-17T04:38:36;100295.20;;;
79488;BMP180;68949;53.176;18.088;2024-03-17T04:41:04;100298.20;;;
79488;BMP180;68949;53.176;18.088;2024-03-17T04:43:34;100300.20;;;
79488;BMP180;68949;53.176;18.088;2024-03-17T04:46:04;100306.40;;;
79488;BMP180;68949;53.176;18.088;2024-03-17T04:48:33;100305.60;;;
79488;BMP180;68949;53.176;18.088;2024-03-17T04:51:01;100305.80;;;
79488;BMP180;68949;53.176;18.088;2024-03-17T04:53:28;100307.40;;;
79488;BMP180;68949;53.176;18.088;2024-03-17T04:56:05;100312.40;;;
79488;BMP180;68949;53.176;18.088;2024-03-17T04:58:34;100310.60;;;
79488;BMP180;68949;53.176;18.088;2024-03-17T05:01:06;100310.60;;;
79488;BMP180;68949;53.176;18.088;2024-03-17T05:03:36;100317.60;;;
79488;BMP180;68949;53.176;18.088;2024-03-17T05:06:06;100323.00;;;
79488;BMP180;68949;53.176;18.088;2024-03-17T05:08:34;100319.40;;;
79488;BMP180;68949;53.176;18.088;2024-03-17T05:11:04;100328.40;;;
79488;BMP180;68949;53.176;18.088;2024-03-17T05:13:36;100333.00;;;
79488;BMP180;68949;53.176;18.088;2024-03-17T05:16:06;100339.60;;;
79488;BMP180;68949;53.176;18.088;2024-03-17T05:18:33;100343.40;;;
79488;BMP180;68949;53.176;18.088;2024-03-17T05:21:06;100339.20;;;
79488;BMP180;68949;53.176;18.088;2024-03-17T05:23:36;100342.60;;;
79488;BMP180;68949;53.176;18.088;2024-03-17T05:26:03;100347.40;;;
79488;BMP180;68949;53.176;18.088;2024-03-17T05:28:34;100349.00;;;
79488;BMP180;68949;53.176;18.088;2024-03-17T05:31:03;100347.60;;;
79488;BMP180;68949;53.176;18.088;2024-03-17T05:33:31;100357.40;;;
79488;BMP180;68949;53.176;18.088;2024-03-17T05:36:00;100349.80;;;
79488;BMP180;68949;53.176;18.088;2024-03-17T05:38:30;100352.20;;;
79488;BMP180;68949;53.176;18.088;2024-03-17T05:41:00;100358.60;;;
79488;BMP180;68949;53.176;18.088;2024-03-17T05:43:30;100347.20;;;
79488;BMP180;68949;53.176;18.088;2024-03-17T05:46:00;100344.00;;;
79488;BMP180;68949;53.176;18.088;2024-03-17T05:48:29;100342.20;;;
79488;BMP180;68949;53.176;18.088;2024-03-17T05:50:56;100349.20;;;
79488;BMP180;68949;53.176;18.088;2024-03-17T05:53:24;100352.40;;;
79488;BMP180;68949;53.176;18.088;2024-03-17T05:55:50;100350.80;;;
79488;BMP180;68949;53.176;18.088;2024-03-17T05:58:17;100354.20;;;
79488;BMP180;68949;53.176;18.088;2024-03-17T06:00:45;100347.00;;;
79488;BMP180;68949;53.176;18.088;2024-03-17T06:03:11;100344.60;;;
79488;BMP180;68949;53.176;18.088;2024-03-17T06:05:40;100343.60;;;
79488;BMP180;68949;53.176;18.088;2024-03-17T06:08:07;100339.20;;;
79488;BMP180;68949;53.176;18.088;2024-03-17T06:10:37;100336.40;;;
79488;BMP180;68949;53.176;18.088;2024-03-17T06:13:04;100342.00;;;
79488;BMP180;68949;53.176;18.088;2024-03-17T06:15:32;100341.00;;;
79488;BMP180;68949;53.176;18.088;2024-03-17T06:17:59;100347.20;;;
79488;BMP180;68949;53.176;18.088;2024-03-17T06:20:28;100337.00;;;
79488;BMP180;68949;53.176;18.088;2024-03-17T06:22:55;100331.60;;;
79488;BMP180;68949;53.176;18.088;2024-03-17T06:25:23;100318.00;;;
79488;BMP180;68949;53.176;18.088;2024-03-17T06:27:51;100318.00;;;
79488;BMP180;68949;53.176;18.088;2024-03-17T06:30:19;100312.60;;;
79488;BMP180;68949;53.176;18.088;2024-03-17T06:32:48;100316.40;;;
79488;BMP180;68949;53.176;18.088;2024-03-17T06:35:17;100315.00;;;
79488;BMP180;68949;53.176;18.088;2024-03-17T06:37:50;100326.20;;;
79488;BMP180;68949;53.176;18.088;2024-03-17T06:40:23;100333.00;;;
79488;BMP180;68949;53.176;18.088;2024-03-17T06:42:52;100333.00;;;
79488;BMP180;68949;53.176;18.088;2024-03-17T06:46:00;100337.60;;;
79488;BMP180;68949;53.176;18.088;2024-03-17T06:48:29;100341.80;;;
79488;BMP180;68949;53.176;18.088;2024-03-17T06:50:55;100340.60;;;
79488;BMP180;68949;53.176;18.088;2024-03-17T06:53:23;100350.20;;;
79488;BMP180;68949;53.176;18.088;2024-03-17T06:55:54;100356.00;;;
79488;BMP180;68949;53.176;18.088;2024-03-17T06:58:22;100356.80;;;
79488;BMP180;68949;53.176;18.088;2024-03-17T07:00:59;100351.20;;;
79488;BMP180;68949;53.176;18.088;2024-03-17T07:03:31;100357.60;;;
79488;BMP180;68949;53.176;18.088;2024-03-17T07:06:01;100363.00;;;
79488;BMP180;68949;53.176;18.088;2024-03-17T07:08:32;100361.60;;;
79488;BMP180;68949;53.176;18.088;2024-03-17T07:11:06;100372.80;;;
79488;BMP180;68949;53.176;18.088;2024-03-17T07:13:38;100381.80;;;
79488;BMP180;68949;53.176;18.088;2024-03-17T07:16:10;100390.20;;;
79488;BMP180;68949;53.176;18.088;2024-03-17T07:18:36;100390.80;;;
79488;BMP180;68949;53.176;18.088;2024-03-17T07:21:04;100395.40;;;
79488;BMP180;68949;53.176;18.088;2024-03-17T07:23:32;100398.80;;;
79488;BMP180;68949;53.176;18.088;2024-03-17T07:26:02;100405.40;;;
79488;BMP180;68949;53.176;18.088;2024-03-17T07:28:31;100412.40;;;
79488;BMP180;68949;53.176;18.088;2024-03-17T07:30:59;100420.60;;;
79488;BMP180;68949;53.176;18.088;2024-03-17T07:33:29;100431.40;;;
79488;BMP180;68949;53.176;18.088;2024-03-17T07:35:58;100428.40;;;
79488;BMP180;68949;53.176;18.088;2024-03-17T07:38:31;100432.20;;;
79488;BMP180;68949;53.176;18.088;2024-03-17T07:41:08;100438.80;;;
79488;BMP180;68949;53.176;18.088;2024-03-17T07:43:38;100442.40;;;
79488;BMP180;68949;53.176;18.088;2024-03-17T07:46:10;100438.00;;;
79488;BMP180;68949;53.176;18.088;2024-03-17T07:48:42;100438.00;;;
79488;BMP180;68949;53.176;18.088;2024-03-17T07:51:15;100430.20;;;
79488;BMP180;68949;53.176;18.088;2024-03-17T07:53:47;100440.00;;;
79488;BMP180;68949;53.176;18.088;2024-03-17T07:56:18;100437.40;;;
79488;BMP180;68949;53.176;18.088;2024-03-17T07:58:54;100447.80;;;
79488;BMP180;68949;53.176;18.088;2024-03-17T08:01:21;100454.20;;;
79488;BMP180;68949;53.176;18.088;2024-03-17T08:03:49;100465.40;;;
79488;BMP180;68949;53.176;18.088;2024-03-17T08:06:21;100470.60;;;
79488;BMP180;68949;53.176;18.088;2024-03-17T08:08:53;100481.20;;;
79488;BMP180;68949;53.176;18.088;2024-03-17T08:11:22;100492.20;;;
79488;BMP180;68949;53.176;18.088;2024-03-17T08:13:49;100507.60;;;
79488;BMP180;68949;53.176;18.088;2024-03-17T08:16:15;100507.80;;;
79488;BMP180;68949;53.176;18.088;2024-03-17T08:18:43;100513.60;;;
79488;BMP180;68949;53.176;18.088;2024-03-17T08:21:10;100517.40;;;
79488;BMP180;68949;53.176;18.088;2024-03-17T08:23:36;100519.40;;;
79488;BMP180;68949;53.176;18.088;2024-03-17T08:26:08;100508.80;;;
79488;BMP180;68949;53.176;18.088;2024-03-17T08:28:35;100515.60;;;
79488;BMP180;68949;53.176;18.088;2024-03-17T08:31:03;100503.20;;;
79488;BMP180;68949;53.176;18.088;2024-03-17T08:33:31;100507.40;;;
79488;BMP180;68949;53.176;18.088;2024-03-17T08:36:03;100510.00;;;
79488;BMP180;68949;53.176;18.088;2024-03-17T08:38:32;100517.60;;;
79488;BMP180;68949;53.176;18.088;2024-03-17T08:41:09;100504.40;;;
79488;BMP180;68949;53.176;18.088;2024-03-17T08:43:39;100501.80;;;
79488;BMP180;68949;53.176;18.088;2024-03-17T08:46:10;100501.20;;;
79488;BMP180;68949;53.176;18.088;2024-03-17T08:48:39;100494.60;;;
79488;BMP180;68949;53.176;18.088;2024-03-17T08:51:07;100493.40;;;
79488;BMP180;68949;53.176;18.088;2024-03-17T08:53:34;100482.00;;;
79488;BMP180;68949;53.176;18.088;2024-03-17T08:56:03;100488.20;;;
79488;BMP180;68949;53.176;18.088;2024-03-17T08:58:30;100467.00;;;
79488;BMP180;68949;53.176;18.088;2024-03-17T09:00:56;100446.40;;;
79488;BMP180;68949;53.176;18.088;2024-03-17T09:03:23;100466.40;;;
79488;BMP180;68949;53.176;18.088;2024-03-17T09:05:52;100459.60;;;
79488;BMP180;68949;53.176;18.088;2024-03-17T09:08:24;100456.80;;;
79488;BMP180;68949;53.176;18.088;2024-03-17T09:10:52;100448.20;;;
79488;BMP180;68949;53.176;18.088;2024-03-17T09:13:22;100460.40;;;
79488;BMP180;68949;53.176;18.088;2024-03-17T09:16:00;100466.60;;;
79488;BMP180;68949;53.176;18.088;2024-03-17T09:18:28;100449.60;;;
79488;BMP180;68949;53.176;18.088;2024-03-17T09:21:07;100456.00;;;
79488;BMP180;68949;53.176;18.088;2024-03-17T09:23:34;100437.40;;;
79488;BMP180;68949;53.176;18.088;2024-03-17T09:26:09;100454.00;;;
79488;BMP180;68949;53.176;18.088;2024-03-17T09:28:36;100447.80;;;
79488;BMP180;68949;53.176;18.088;2024-03-17T09:31:03;100455.40;;;
79488;BMP180;68949;53.176;18.088;2024-03-17T09:33:35;100449.00;;;
79488;BMP180;68949;53.176;18.088;2024-03-17T09:36:05;100445.40;;;
79488;BMP180;68949;53.176;18.088;2024-03-17T09:38:34;100445.20;;;
79488;BMP180;68949;53.176;18.088;2024-03-17T09:41:01;100431.80;;;
79488;BMP180;68949;53.176;18.088;2024-03-17T09:43:33;100425.60;;;
79488;BMP180;68949;53.176;18.088;2024-03-17T09:46:05;100425.60;;;
79488;BMP180;68949;53.176;18.088;2024-03-17T09:48:32;100413.80;;;
79488;BMP180;68949;53.176;18.088;2024-03-17T09:51:00;100411.00;;;
79488;BMP180;68949;53.176;18.088;2024-03-17T09:53:35;100392.00;;;
79488;BMP180;68949;53.176;18.088;2024-03-17T09:56:16;100380.20;;;
79488;BMP180;68949;53.176;18.088;2024-03-17T09:58:47;100413.40;;;
79488;BMP180;68949;53.176;18.088;2024-03-17T10:01:14;100429.60;;;
79488;BMP180;68949;53.176;18.088;2024-03-17T10:03:51;100423.00;;;
79488;BMP180;68949;53.176;18.088;2024-03-17T10:06:23;100451.80;;;
79488;BMP180;68949;53.176;18.088;2024-03-17T10:08:59;100435.20;;;
79488;BMP180;68949;53.176;18.088;2024-03-17T10:11:35;100419.40;;;
79488;BMP180;68949;53.176;18.088;2024-03-17T10:14:08;100423.20;;;
79488;BMP180;68949;53.176;18.088;2024-03-17T10:16:37;100425.40;;;
79488;BMP180;68949;53.176;18.088;2024-03-17T10:19:23;100418.80;;;
79488;BMP180;68949;53.176;18.088;2024-03-17T10:22:00;100395.80;;;
79488;BMP180;68949;53.176;18.088;2024-03-17T10:24:29;100414.00;;;
79488;BMP180;68949;53.176;18.088;2024-03-17T10:26:58;100435.80;;;
79488;BMP180;68949;53.176;18.088;2024-03-17T10:29:33;100402.60;;;
79488;BMP180;68949;53.176;18.088;2024-03-17T10:32:14;100409.60;;;
79488;BMP180;68949;53.176;18.088;2024-03-17T10:34:41;100410.80;;;
79488;BMP180;68949;53.176;18.088;2024-03-17T10:37:18;100450.20;;;
79488;BMP180;68949;53.176;18.088;2024-03-17T10:39:51;100471.40;;;
79488;BMP180;68949;53.176;18.088;2024-03-17T10:42:28;100468.80;;;
79488;BMP180;68949;53.176;18.088;2024-03-17T10:44:55;100474.00;;;
79488;BMP180;68949;53.176;18.088;2024-03-17T10:47:27;100487.00;;;
79488;BMP180;68949;53.176;18.088;2024-03-17T10:49:55;100460.00;;;
79488;BMP180;68949;53.176;18.088;2024-03-17T10:52:23;100432.20;;;
79488;BMP180;68949;53.176;18.088;2024-03-17T10:54:55;100437.80;;;
79488;BMP180;68949;53.176;18.088;2024-03-17T10:57:57;100438.40;;;
79488;BMP180;68949;53.176;18.088;2024-03-17T11:00:22;100428.20;;;
79488;BMP180;68949;53.176;18.088;2024-03-17T11:02:53;100438.20;;;
79488;BMP180;68949;53.176;18.088;2024-03-17T11:05:35;100461.00;;;
79488;BMP180;68949;53.176;18.088;2024-03-17T11:08:16;100457.40;;;
79488;BMP180;68949;53.176;18.088;2024-03-17T11:10:53;100440.00;;;
79488;BMP180;68949;53.176;18.088;2024-03-17T11:13:28;100435.40;;;
79488;BMP180;68949;53.176;18.088;2024-03-17T11:15:57;100454.60;;;
79488;BMP180;68949;53.176;18.088;2024-03-17T11:18:34;100460.40;;;
79488;BMP180;68949;53.176;18.088;2024-03-17T11:21:20;100488.00;;;
79488;BMP180;68949;53.176;18.088;2024-03-17T11:24:02;100467.00;;;
79488;BMP180;68949;53.176;18.088;2024-03-17T11:26:34;100476.80;;;
79488;BMP180;68949;53.176;18.088;2024-03-17T11:29:03;100483.00;;;
79488;BMP180;68949;53.176;18.088;2024-03-17T11:34:32;100498.80;;;
79488;BMP180;68949;53.176;18.088;2024-03-17T11:37:03;100446.00;;;
79488;BMP180;68949;53.176;18.088;2024-03-17T11:39:57;100445.00;;;
79488;BMP180;68949;53.176;18.088;2024-03-17T11:42:26;100454.80;;;
79488;BMP180;68949;53.176;18.088;2024-03-17T11:45:00;100449.60;;;
79488;BMP180;68949;53.176;18.088;2024-03-17T11:47:37;100453.20;;;
79488;BMP180;68949;53.176;18.088;2024-03-17T11:50:08;100454.60;;;
79488;BMP180;68949;53.176;18.088;2024-03-17T11:52:39;100470.00;;;
79488;BMP180;68949;53.176;18.088;2024-03-17T11:55:18;100447.80;;;
79488;BMP180;68949;53.176;18.088;2024-03-17T11:57:45;100444.80;;;
79488;BMP180;68949;53.176;18.088;2024-03-17T12:00:24;100409.20;;;
79488;BMP180;68949;53.176;18.088;2024-03-17T12:02:51;100416.00;;;
79488;BMP180;68949;53.176;18.088;2024-03-17T12:05:17;100427.80;;;
79488;BMP180;68949;53.176;18.088;2024-03-17T12:07:46;100471.80;;;
79488;BMP180;68949;53.176;18.088;2024-03-17T12:10:13;100477.20;;;
79488;BMP180;68949;53.176;18.088;2024-03-17T12:12:47;100461.00;;;
79488;BMP180;68949;53.176;18.088;2024-03-17T12:15:18;100492.00;;;
79488;BMP180;68949;53.176;18.088;2024-03-17T12:17:46;100508.00;;;
79488;BMP180;68949;53.176;18.088;2024-03-17T12:20:20;100542.00;;;
79488;BMP180;68949;53.176;18.088;2024-03-17T12:22:48;100556.40;;;
79488;BMP180;68949;53.176;18.088;2024-03-17T12:25:20;100556.00;;;
79488;BMP180;68949;53.176;18.088;2024-03-17T12:27:49;100573.00;;;
79488;BMP180;68949;53.176;18.088;2024-03-17T12:30:16;100560.60;;;
79488;BMP180;68949;53.176;18.088;2024-03-17T12:32:45;100553.20;;;
79488;BMP180;68949;53.176;18.088;2024-03-17T12:35:16;100541.00;;;
79488;BMP180;68949;53.176;18.088;2024-03-17T12:37:45;100531.00;;;
79488;BMP180;68949;53.176;18.088;2024-03-17T12:40:20;100531.20;;;
79488;BMP180;68949;53.176;18.088;2024-03-17T12:42:49;100517.40;;;
79488;BMP180;68949;53.176;18.088;2024-03-17T12:45:21;100498.00;;;
79488;BMP180;68949;53.176;18.088;2024-03-17T12:47:51;100513.20;;;
79488;BMP180;68949;53.176;18.088;2024-03-17T12:50:20;100509.00;;;
79488;BMP180;68949;53.176;18.088;2024-03-17T12:52:54;100520.20;;;
79488;BMP180;68949;53.176;18.088;2024-03-17T12:55:24;100514.40;;;
79488;BMP180;68949;53.176;18.088;2024-03-17T12:58:11;100509.60;;;
79488;BMP180;68949;53.176;18.088;2024-03-17T13:01:04;100541.20;;;
79488;BMP180;68949;53.176;18.088;2024-03-17T13:03:36;100559.60;;;
79488;BMP180;68949;53.176;18.088;2024-03-17T13:06:09;100566.00;;;
79488;BMP180;68949;53.176;18.088;2024-03-17T13:08:36;100579.80;;;
79488;BMP180;68949;53.176;18.088;2024-03-17T13:11:03;100591.20;;;
79488;BMP180;68949;53.176;18.088;2024-03-17T13:13:35;100593.40;;;
79488;BMP180;68949;53.176;18.088;2024-03-17T13:16:04;100599.80;;;
79488;BMP180;68949;53.176;18.088;2024-03-17T13:18:30;100636.60;;;
79488;BMP180;68949;53.176;18.088;2024-03-17T13:20:57;100637.60;;;
79488;BMP180;68949;53.176;18.088;2024-03-17T13:23:25;100640.60;;;
79488;BMP180;68949;53.176;18.088;2024-03-17T13:25:52;100649.60;;;
79488;BMP180;68949;53.176;18.088;2024-03-17T13:28:21;100659.20;;;
79488;BMP180;68949;53.176;18.088;2024-03-17T13:30:48;100669.80;;;
79488;BMP180;68949;53.176;18.088;2024-03-17T13:33:14;100686.60;;;
79488;BMP180;68949;53.176;18.088;2024-03-17T13:35:42;100685.60;;;
79488;BMP180;68949;53.176;18.088;2024-03-17T13:38:10;100683.60;;;
79488;BMP180;68949;53.176;18.088;2024-03-17T13:40:40;100669.20;;;
79488;BMP180;68949;53.176;18.088;2024-03-17T13:44:00;100661.80;;;
79488;BMP180;68949;53.176;18.088;2024-03-17T13:46:31;100651.80;;;
79488;BMP180;68949;53.176;18.088;2024-03-17T13:49:10;100644.80;;;
79488;BMP180;68949;53.176;18.088;2024-03-17T13:51:40;100636.40;;;
79488;BMP180;68949;53.176;18.088;2024-03-17T13:54:09;100636.80;;;
79488;BMP180;68949;53.176;18.088;2024-03-17T13:56:36;100609.60;;;
79488;BMP180;68949;53.176;18.088;2024-03-17T13:59:02;100592.60;;;
79488;BMP180;68949;53.176;18.088;2024-03-17T14:01:29;100595.80;;;
79488;BMP180;68949;53.176;18.088;2024-03-17T14:03:58;100593.80;;;
79488;BMP180;68949;53.176;18.088;2024-03-17T14:06:24;100579.60;;;
79488;BMP180;68949;53.176;18.088;2024-03-17T14:08:51;100562.00;;;
79488;BMP180;68949;53.176;18.088;2024-03-17T14:11:18;100574.60;;;
79488;BMP180;68949;53.176;18.088;2024-03-17T14:13:45;100574.80;;;
79488;BMP180;68949;53.176;18.088;2024-03-17T14:16:12;100572.00;;;
79488;BMP180;68949;53.176;18.088;2024-03-17T14:18:38;100571.60;;;
79488;BMP180;68949;53.176;18.088;2024-03-17T14:21:05;100584.00;;;
79488;BMP180;68949;53.176;18.088;2024-03-17T14:23:31;100595.60;;;
79488;BMP180;68949;53.176;18.088;2024-03-17T14:25:59;100586.00;;;
79488;BMP180;68949;53.176;18.088;2024-03-17T14:28:26;100587.20;;;
79488;BMP180;68949;53.176;18.088;2024-03-17T14:30:56;100578.00;;;
79488;BMP180;68949;53.176;18.088;2024-03-17T14:33:24;100579.00;;;
79488;BMP180;68949;53.176;18.088;2024-03-17T14:35:58;100574.60;;;
79488;BMP180;68949;53.176;18.088;2024-03-17T14:38:24;100565.40;;;
79488;BMP180;68949;53.176;18.088;2024-03-17T14:40:52;100575.40;;;
79488;BMP180;68949;53.176;18.088;2024-03-17T14:43:20;100573.00;;;
79488;BMP180;68949;53.176;18.088;2024-03-17T14:45:51;100579.60;;;
79488;BMP180;68949;53.176;18.088;2024-03-17T14:48:19;100586.00;;;
79488;BMP180;68949;53.176;18.088;2024-03-17T14:50:47;100596.00;;;
79488;BMP180;68949;53.176;18.088;2024-03-17T14:53:14;100600.40;;;
79488;BMP180;68949;53.176;18.088;2024-03-17T14:55:43;100607.40;;;
79488;BMP180;68949;53.176;18.088;2024-03-17T14:58:10;100612.00;;;
79488;BMP180;68949;53.176;18.088;2024-03-17T15:00:39;100595.80;;;
79488;BMP180;68949;53.176;18.088;2024-03-17T15:03:06;100587.20;;;
79488;BMP180;68949;53.176;18.088;2024-03-17T15:05:34;100584.80;;;
79488;BMP180;68949;53.176;18.088;2024-03-17T15:08:00;100570.80;;;
79488;BMP180;68949;53.176;18.088;2024-03-17T15:10:29;100557.20;;;